createdAt,value
2022-08-16T00:00:38.604Z,16.91
2022-08-16T00:05:48.310Z,16.91
2022-08-16T00:10:50.463Z,16.98
2022-08-16T00:15:54.312Z,16.94
2022-08-16T00:20:55.599Z,16.94
2022-08-16T00:26:13.608Z,16.95
2022-08-16T00:31:59.623Z,16.85
2022-08-16T00:37:03.562Z,16.87
2022-08-16T00:42:05.314Z,16.87
2022-08-16T00:47:16.181Z,16.98
2022-08-16T00:52:30.273Z,16.85
2022-08-16T00:57:59.067Z,16.75
2022-08-16T01:03:07.353Z,16.70
2022-08-16T01:08:35.388Z,16.56
2022-08-16T01:13:39.274Z,16.47
2022-08-16T01:18:44.458Z,16.43
2022-08-16T01:24:02.497Z,16.47
2022-08-16T01:29:09.934Z,16.35
2022-08-16T01:34:24.882Z,16.12
2022-08-16T01:39:28.634Z,16.05
2022-08-16T01:44:37.271Z,16.05
2022-08-16T01:49:45.703Z,15.84
2022-08-16T01:55:53.976Z,15.77
2022-08-16T02:00:57.226Z,15.70
2022-08-16T02:05:59.008Z,15.39
2022-08-16T02:11:07.871Z,15.32
2022-08-16T02:16:18.839Z,15.49
2022-08-16T02:21:31.544Z,15.41
2022-08-16T02:26:34.240Z,15.42
2022-08-16T02:32:03.157Z,15.34
2022-08-16T02:37:05.165Z,15.38
2022-08-16T02:42:07.790Z,15.39
2022-08-16T02:47:09.247Z,15.45
2022-08-16T02:52:11.404Z,15.46
2022-08-16T02:57:27.019Z,15.40
2022-08-16T03:02:32.045Z,15.27
2022-08-16T03:07:37.085Z,15.27
2022-08-16T03:12:55.269Z,15.24
2022-08-16T03:17:58.037Z,15.32
2022-08-16T03:23:01.863Z,15.18
2022-08-16T03:28:05.217Z,15.17
2022-08-16T03:33:08.926Z,15.18
2022-08-16T03:38:34.243Z,15.24
2022-08-16T03:43:51.411Z,15.31
2022-08-16T03:48:54.948Z,15.32
2022-08-16T03:54:00.900Z,15.34
2022-08-16T03:59:02.870Z,15.15
2022-08-16T04:04:09.654Z,15.13
2022-08-16T04:09:19.606Z,15.12
2022-08-16T04:14:32.770Z,15.11
2022-08-16T04:19:35.962Z,15.04
2022-08-16T04:24:36.961Z,15.01
2022-08-16T04:29:43.939Z,14.93
2022-08-16T04:34:48.238Z,14.91
2022-08-16T04:39:55.820Z,14.91
2022-08-16T04:44:58.713Z,14.93
2022-08-16T04:50:15.652Z,15.13
2022-08-16T04:55:37.870Z,15.13
2022-08-16T05:00:39.798Z,15.32
2022-08-16T05:05:59.184Z,15.48
2022-08-16T05:11:09.347Z,15.68
2022-08-16T05:16:16.472Z,15.84
2022-08-16T05:21:22.353Z,15.70
2022-08-16T05:26:29.555Z,15.83
2022-08-16T05:31:31.010Z,15.98
2022-08-16T05:36:36.708Z,16.33
2022-08-16T05:41:45.119Z,16.62
2022-08-16T05:46:47.758Z,16.72
2022-08-16T05:51:56.235Z,17.16
2022-08-16T05:56:57.831Z,17.44
2022-08-16T06:02:06.159Z,17.63
2022-08-16T06:07:09.702Z,17.66
2022-08-16T06:12:31.136Z,17.87
2022-08-16T06:17:41.462Z,17.98
2022-08-16T06:22:47.590Z,18.29
2022-08-16T06:28:01.160Z,18.69
2022-08-16T06:33:12.324Z,18.82
2022-08-16T06:38:32.825Z,18.81
2022-08-16T06:43:39.649Z,19.03
2022-08-16T06:48:51.151Z,18.93
2022-08-16T06:53:53.727Z,18.89
2022-08-16T06:58:56.834Z,19.22
2022-08-16T07:04:01.244Z,19.64
2022-08-16T07:09:09.792Z,19.87
2022-08-16T07:14:24.953Z,19.72
2022-08-16T07:20:01.587Z,19.74
2022-08-16T07:25:14.610Z,19.66
2022-08-16T07:30:39.320Z,19.84
2022-08-16T07:35:55.727Z,19.94
2022-08-16T07:41:01.604Z,20.19
2022-08-16T07:46:05.017Z,20.39
2022-08-16T07:51:43.143Z,20.34
2022-08-16T07:56:45.229Z,20.54
2022-08-16T08:01:46.290Z,20.67
2022-08-16T08:06:50.966Z,20.73
2022-08-16T08:12:00.748Z,20.67
2022-08-16T08:17:06.744Z,21.18
2022-08-16T08:22:10.176Z,21.27
2022-08-16T08:27:26.816Z,21.55
2022-08-16T08:32:57.478Z,21.63
2022-08-16T08:38:08.399Z,21.32
2022-08-16T08:43:17.931Z,21.45
2022-08-16T08:48:33.791Z,21.66
2022-08-16T08:53:37.885Z,21.58
2022-08-16T08:58:39.771Z,21.88
2022-08-16T09:04:06.191Z,22.07
2022-08-16T09:09:08.938Z,22.36
2022-08-16T09:14:24.265Z,22.49
2022-08-16T09:19:33.034Z,22.93
2022-08-16T09:24:51.770Z,22.69
2022-08-16T09:30:00.083Z,22.93
2022-08-16T09:35:05.106Z,23.15
2022-08-16T09:40:31.646Z,23.34
2022-08-16T09:45:38.285Z,23.34
2022-08-16T09:50:42.535Z,23.43
2022-08-16T09:55:49.448Z,23.47
2022-08-16T10:00:52.505Z,23.74
2022-08-16T10:05:53.338Z,24.49
2022-08-16T10:11:13.112Z,24.44
2022-08-16T10:21:16.139Z,24.61
2022-08-16T10:27:16.797Z,25.24
2022-08-16T10:32:23.587Z,25.28
2022-08-16T10:37:35.697Z,25.98
2022-08-16T10:42:37.662Z,26.53
2022-08-16T10:47:41.874Z,25.25
2022-08-16T10:52:44.384Z,25.56
2022-08-16T10:57:54.154Z,25.89
2022-08-16T11:03:00.730Z,26.17
2022-08-16T11:08:06.981Z,27.12
2022-08-16T11:19:03.130Z,26.75
2022-08-16T11:24:40.169Z,27.28
2022-08-16T11:29:44.680Z,26.91
2022-08-16T11:35:10.952Z,27.22
2022-08-16T11:40:32.363Z,27.58
2022-08-16T11:45:35.347Z,27.17
2022-08-16T11:50:38.075Z,27.93
2022-08-16T11:55:39.291Z,28.27
2022-08-16T12:00:51.696Z,28.59
2022-08-16T12:05:54.482Z,28.20
2022-08-16T12:10:59.219Z,28.30
2022-08-16T12:16:01.542Z,27.63
2022-08-16T12:21:03.851Z,27.75
2022-08-16T12:26:10.427Z,27.42
2022-08-16T12:31:12.048Z,26.65
2022-08-16T12:36:13.371Z,26.62
2022-08-16T12:41:14.939Z,26.96
2022-08-16T12:46:25.917Z,26.83
2022-08-16T12:51:57.951Z,27.40
2022-08-16T12:57:01.272Z,27.61
2022-08-16T13:02:04.459Z,26.90
2022-08-16T13:07:08.444Z,27.38
2022-08-16T13:12:23.401Z,28.37
2022-08-16T13:17:29.517Z,28.14
2022-08-16T13:22:30.970Z,28.49
2022-08-16T13:28:01.589Z,28.05
2022-08-16T13:33:12.283Z,28.50
2022-08-16T13:38:24.287Z,28.74
2022-08-16T13:43:27.776Z,28.85
2022-08-16T13:48:43.019Z,28.65
2022-08-16T13:53:54.506Z,28.95
2022-08-16T13:59:01.988Z,28.85
2022-08-16T14:04:04.581Z,29.42
2022-08-16T14:09:06.706Z,29.60
2022-08-16T14:14:08.054Z,29.06
2022-08-16T14:19:17.591Z,28.65
2022-08-16T14:24:30.031Z,28.99
2022-08-16T14:29:32.126Z,28.59
2022-08-16T14:34:36.161Z,28.66
2022-08-16T14:39:39.431Z,28.61
2022-08-16T14:44:41.230Z,28.57
2022-08-16T14:49:43.307Z,28.57
2022-08-16T14:54:45.010Z,27.52
2022-08-16T14:59:46.195Z,27.96
2022-08-16T15:04:48.465Z,27.83
2022-08-16T15:10:00.654Z,27.64
2022-08-16T15:15:13.191Z,27.24
2022-08-16T15:20:19.096Z,26.92
2022-08-16T15:25:27.639Z,27.15
2022-08-16T15:31:00.609Z,27.22
2022-08-16T15:36:04.611Z,27.24
2022-08-16T15:41:06.417Z,27.66
2022-08-16T15:46:35.821Z,27.82
2022-08-16T15:51:57.469Z,27.56
2022-08-16T15:57:11.431Z,27.04
2022-08-16T16:02:13.150Z,27.31
2022-08-16T16:07:15.642Z,27.25
2022-08-16T16:12:51.527Z,27.64
2022-08-16T16:17:56.290Z,27.53
2022-08-16T16:23:00.156Z,27.64
2022-08-16T16:28:02.071Z,27.43
2022-08-16T16:33:03.306Z,27.36
2022-08-16T16:38:08.138Z,27.22
2022-08-16T16:43:10.728Z,27.09
2022-08-16T16:48:15.029Z,27.02
2022-08-16T16:53:18.879Z,27.01
2022-08-16T16:58:43.473Z,26.99
2022-08-16T17:03:44.708Z,26.78
2022-08-16T17:08:55.124Z,26.78
2022-08-16T17:13:56.071Z,26.76
2022-08-16T17:19:17.347Z,26.59
2022-08-16T17:24:24.504Z,26.61
2022-08-16T17:29:45.888Z,26.55
2022-08-16T17:34:50.781Z,26.44
2022-08-16T17:40:00.844Z,26.40
2022-08-16T17:45:21.982Z,26.24
2022-08-16T17:50:23.787Z,26.11
2022-08-16T17:55:34.006Z,25.83
2022-08-16T18:00:36.830Z,25.74
2022-08-16T18:05:38.085Z,25.67
2022-08-16T18:10:38.960Z,25.48
2022-08-16T18:15:41.424Z,25.38
2022-08-16T18:21:01.179Z,25.13
2022-08-16T18:26:04.836Z,24.92
2022-08-16T18:31:07.305Z,24.80
2022-08-16T18:36:20.525Z,24.58
2022-08-16T18:41:25.554Z,24.56
2022-08-16T18:46:26.531Z,24.21
2022-08-16T18:51:27.458Z,24.00
2022-08-16T18:56:56.155Z,23.85
2022-08-16T19:02:04.516Z,23.65
2022-08-16T19:07:06.542Z,23.28
2022-08-16T19:12:07.958Z,23.12
2022-08-16T19:17:10.505Z,23.04
2022-08-16T19:22:11.283Z,22.94
2022-08-16T19:27:13.257Z,22.93
2022-08-16T19:32:26.414Z,22.78
2022-08-16T19:37:27.303Z,22.60
2022-08-16T19:42:28.850Z,22.63
2022-08-16T19:47:30.982Z,22.51
2022-08-16T19:52:32.510Z,22.56
2022-08-16T19:57:35.080Z,22.48
2022-08-16T20:02:42.335Z,22.34
2022-08-16T20:07:43.634Z,22.25
2022-08-16T20:12:58.331Z,22.18
2022-08-16T20:18:03.932Z,21.82
2022-08-16T20:23:25.102Z,21.84
2022-08-16T20:28:50.989Z,21.61
2022-08-16T20:33:55.320Z,21.58
2022-08-16T20:38:57.139Z,21.52
2022-08-16T20:43:58.123Z,21.56
2022-08-16T20:49:00.139Z,21.56
2022-08-16T20:54:01.399Z,21.42
2022-08-16T20:59:02.502Z,21.26
2022-08-16T21:04:03.767Z,21.26
2022-08-16T21:09:04.694Z,21.13
2022-08-16T21:14:10.129Z,21.07
2022-08-16T21:19:10.960Z,20.94
2022-08-16T21:24:12.441Z,20.93
2022-08-16T21:29:16.257Z,20.97
2022-08-16T21:34:19.147Z,20.82
2022-08-16T21:39:19.981Z,20.66
2022-08-16T21:44:21.140Z,20.71
2022-08-16T21:49:21.977Z,20.64
2022-08-16T21:54:23.010Z,20.58
2022-08-16T21:59:24.033Z,20.39
2022-08-16T22:04:37.454Z,20.33
2022-08-16T22:09:39.949Z,20.38
2022-08-16T22:14:40.773Z,20.35
2022-08-16T22:19:42.036Z,20.35
2022-08-16T22:24:42.913Z,20.37
2022-08-16T22:29:43.882Z,20.31
2022-08-16T22:34:44.718Z,20.10
2022-08-16T22:39:45.635Z,19.99
2022-08-16T22:44:46.817Z,19.91
2022-08-16T22:49:48.024Z,19.87
2022-08-16T22:54:49.274Z,19.95
2022-08-16T22:59:53.016Z,19.93
2022-08-16T23:04:55.630Z,19.89
2022-08-16T23:09:56.445Z,19.95
2022-08-16T23:15:02.027Z,20.02
2022-08-16T23:20:03.677Z,19.92
2022-08-16T23:25:05.116Z,19.88
2022-08-16T23:30:07.304Z,19.99
2022-08-16T23:35:08.298Z,20.02
2022-08-16T23:40:13.123Z,20.02
2022-08-16T23:45:14.585Z,20.11
2022-08-16T23:50:16.530Z,20.02
2022-08-16T23:55:17.605Z,19.97
